sensor_id;sensor_type;location;lat;lon;timestamp;P1;durP1;ratioP1;P2;durP2;ratioP2
76443;SDS011;65282;51.362;10.082;2022-11-18T00:00:00;14.70;;;9.00;;
76443;SDS011;65282;51.362;10.082;2022-11-18T00:02:45;18.70;;;9.83;;
76443;SDS011;65282;51.362;10.082;2022-11-18T00:05:29;18.20;;;9.80;;
76443;SDS011;65282;51.362;10.082;2022-11-18T00:08:13;13.77;;;7.47;;
76443;SDS011;65282;51.362;10.082;2022-11-18T00:10:58;13.07;;;7.53;;
76443;SDS011;65282;51.362;10.082;2022-11-18T00:13:47;15.50;;;8.57;;
76443;SDS011;65282;51.362;10.082;2022-11-18T00:16:31;15.63;;;7.63;;
76443;SDS011;65282;51.362;10.082;2022-11-18T00:19:16;14.23;;;6.97;;
76443;SDS011;65282;51.362;10.082;2022-11-18T00:22:02;21.37;;;10.47;;
76443;SDS011;65282;51.362;10.082;2022-11-18T00:24:46;18.30;;;10.23;;
76443;SDS011;65282;51.362;10.082;2022-11-18T00:27:30;16.50;;;9.07;;
76443;SDS011;65282;51.362;10.082;2022-11-18T00:30:15;14.10;;;8.70;;
76443;SDS011;65282;51.362;10.082;2022-11-18T00:33:00;15.30;;;8.60;;
76443;SDS011;65282;51.362;10.082;2022-11-18T00:35:53;12.60;;;7.57;;
76443;SDS011;65282;51.362;10.082;2022-11-18T00:38:37;17.03;;;7.90;;
76443;SDS011;65282;51.362;10.082;2022-11-18T00:41:22;14.40;;;7.90;;
76443;SDS011;65282;51.362;10.082;2022-11-18T00:44:07;14.27;;;7.23;;
76443;SDS011;65282;51.362;10.082;2022-11-18T00:46:51;14.33;;;7.13;;
76443;SDS011;65282;51.362;10.082;2022-11-18T00:49:36;17.50;;;8.47;;
76443;SDS011;65282;51.362;10.082;2022-11-18T00:52:22;25.33;;;10.77;;
76443;SDS011;65282;51.362;10.082;2022-11-18T06:44:14;14.83;;;8.03;;
76443;SDS011;65282;51.362;10.082;2022-11-18T06:46:58;18.27;;;9.70;;
76443;SDS011;65282;51.362;10.082;2022-11-18T06:49:42;23.63;;;10.37;;
76443;SDS011;65282;51.362;10.082;2022-11-18T06:52:26;21.93;;;10.13;;
76443;SDS011;65282;51.362;10.082;2022-11-18T06:55:11;22.83;;;10.17;;
76443;SDS011;65282;51.362;10.082;2022-11-18T06:57:55;23.57;;;11.33;;
76443;SDS011;65282;51.362;10.082;2022-11-18T07:00:41;24.33;;;9.97;;
76443;SDS011;65282;51.362;10.082;2022-11-18T07:03:25;20.67;;;10.40;;
76443;SDS011;65282;51.362;10.082;2022-11-18T07:06:10;23.57;;;11.33;;
76443;SDS011;65282;51.362;10.082;2022-11-18T07:08:56;25.97;;;10.43;;
76443;SDS011;65282;51.362;10.082;2022-11-18T07:11:42;22.50;;;9.33;;
76443;SDS011;65282;51.362;10.082;2022-11-18T07:14:26;18.00;;;8.77;;
76443;SDS011;65282;51.362;10.082;2022-11-18T07:17:12;24.20;;;9.50;;
76443;SDS011;65282;51.362;10.082;2022-11-18T07:19:56;22.97;;;10.10;;
76443;SDS011;65282;51.362;10.082;2022-11-18T07:22:40;24.37;;;9.87;;
76443;SDS011;65282;51.362;10.082;2022-11-18T07:25:24;21.50;;;9.63;;
76443;SDS011;65282;51.362;10.082;2022-11-18T07:28:08;22.30;;;9.57;;
76443;SDS011;65282;51.362;10.082;2022-11-18T07:30:52;21.97;;;9.80;;
76443;SDS011;65282;51.362;10.082;2022-11-18T07:33:45;24.17;;;8.70;;
76443;SDS011;65282;51.362;10.082;2022-11-18T07:36:30;19.67;;;9.87;;
76443;SDS011;65282;51.362;10.082;2022-11-18T07:39:14;19.70;;;9.20;;
76443;SDS011;65282;51.362;10.082;2022-11-18T07:41:59;22.87;;;9.57;;
76443;SDS011;65282;51.362;10.082;2022-11-18T07:44:43;23.23;;;10.07;;
76443;SDS011;65282;51.362;10.082;2022-11-18T07:47:27;22.63;;;9.37;;
76443;SDS011;65282;51.362;10.082;2022-11-18T07:50:12;24.73;;;9.63;;
76443;SDS011;65282;51.362;10.082;2022-11-18T07:52:57;23.37;;;9.67;;
76443;SDS011;65282;51.362;10.082;2022-11-18T07:55:41;23.63;;;10.73;;
76443;SDS011;65282;51.362;10.082;2022-11-18T07:58:25;24.07;;;10.17;;
76443;SDS011;65282;51.362;10.082;2022-11-18T08:01:10;22.87;;;9.47;;
76443;SDS011;65282;51.362;10.082;2022-11-18T08:03:56;24.47;;;10.60;;
76443;SDS011;65282;51.362;10.082;2022-11-18T08:06:42;22.97;;;9.13;;
76443;SDS011;65282;51.362;10.082;2022-11-18T08:09:26;22.27;;;9.40;;
76443;SDS011;65282;51.362;10.082;2022-11-18T08:12:11;25.90;;;10.00;;
76443;SDS011;65282;51.362;10.082;2022-11-18T08:14:55;23.83;;;9.30;;
76443;SDS011;65282;51.362;10.082;2022-11-18T08:17:39;20.47;;;8.90;;
76443;SDS011;65282;51.362;10.082;2022-11-18T08:20:23;20.10;;;8.73;;
76443;SDS011;65282;51.362;10.082;2022-11-18T08:23:08;18.43;;;8.73;;
76443;SDS011;65282;51.362;10.082;2022-11-18T08:25:59;22.60;;;9.67;;
76443;SDS011;65282;51.362;10.082;2022-11-18T08:28:45;23.40;;;10.47;;
76443;SDS011;65282;51.362;10.082;2022-11-18T08:31:30;27.43;;;9.80;;
76443;SDS011;65282;51.362;10.082;2022-11-18T08:34:14;24.90;;;9.83;;
76443;SDS011;65282;51.362;10.082;2022-11-18T08:36:58;23.10;;;9.50;;
76443;SDS011;65282;51.362;10.082;2022-11-18T08:39:44;22.13;;;9.93;;
76443;SDS011;65282;51.362;10.082;2022-11-18T08:42:28;23.57;;;9.10;;
76443;SDS011;65282;51.362;10.082;2022-11-18T08:45:12;19.63;;;8.90;;
76443;SDS011;65282;51.362;10.082;2022-11-18T08:47:57;22.47;;;10.00;;
76443;SDS011;65282;51.362;10.082;2022-11-18T08:50:41;26.17;;;10.33;;
76443;SDS011;65282;51.362;10.082;2022-11-18T08:53:25;22.47;;;9.87;;
76443;SDS011;65282;51.362;10.082;2022-11-18T08:56:13;21.67;;;9.60;;
76443;SDS011;65282;51.362;10.082;2022-11-18T08:58:59;21.57;;;9.87;;
76443;SDS011;65282;51.362;10.082;2022-11-18T09:01:43;26.33;;;10.87;;
76443;SDS011;65282;51.362;10.082;2022-11-18T09:04:27;20.00;;;8.83;;
76443;SDS011;65282;51.362;10.082;2022-11-18T09:07:12;20.90;;;9.87;;
76443;SDS011;65282;51.362;10.082;2022-11-18T09:09:56;19.83;;;9.33;;
76443;SDS011;65282;51.362;10.082;2022-11-18T09:12:41;20.07;;;9.83;;
76443;SDS011;65282;51.362;10.082;2022-11-18T09:15:26;18.67;;;9.10;;
76443;SDS011;65282;51.362;10.082;2022-11-18T09:18:10;20.63;;;9.87;;
76443;SDS011;65282;51.362;10.082;2022-11-18T09:20:54;22.47;;;10.07;;
76443;SDS011;65282;51.362;10.082;2022-11-18T09:23:38;22.23;;;9.90;;
76443;SDS011;65282;51.362;10.082;2022-11-18T09:26:22;18.57;;;9.30;;
76443;SDS011;65282;51.362;10.082;2022-11-18T09:29:08;19.40;;;8.80;;
76443;SDS011;65282;51.362;10.082;2022-11-18T09:31:52;23.93;;;9.80;;
76443;SDS011;65282;51.362;10.082;2022-11-18T09:34:37;20.47;;;9.77;;
76443;SDS011;65282;51.362;10.082;2022-11-18T09:37:21;22.03;;;10.00;;
76443;SDS011;65282;51.362;10.082;2022-11-18T09:40:05;24.80;;;10.37;;
76443;SDS011;65282;51.362;10.082;2022-11-18T09:42:55;20.73;;;10.37;;
76443;SDS011;65282;51.362;10.082;2022-11-18T09:45:47;21.27;;;10.20;;
76443;SDS011;65282;51.362;10.082;2022-11-18T09:48:36;25.53;;;10.20;;
76443;SDS011;65282;51.362;10.082;2022-11-18T09:51:20;21.57;;;9.60;;
76443;SDS011;65282;51.362;10.082;2022-11-18T09:54:19;20.60;;;9.17;;
76443;SDS011;65282;51.362;10.082;2022-11-18T09:57:09;18.23;;;8.97;;
76443;SDS011;65282;51.362;10.082;2022-11-18T09:59:57;20.80;;;9.97;;
76443;SDS011;65282;51.362;10.082;2022-11-18T10:02:49;19.80;;;8.67;;
76443;SDS011;65282;51.362;10.082;2022-11-18T10:05:41;19.33;;;9.17;;
76443;SDS011;65282;51.362;10.082;2022-11-18T10:08:30;18.60;;;8.60;;
76443;SDS011;65282;51.362;10.082;2022-11-18T10:11:19;22.53;;;9.77;;
76443;SDS011;65282;51.362;10.082;2022-11-18T10:14:11;19.23;;;9.20;;
76443;SDS011;65282;51.362;10.082;2022-11-18T10:17:06;22.83;;;9.23;;
76443;SDS011;65282;51.362;10.082;2022-11-18T10:20:10;18.07;;;8.80;;
76443;SDS011;65282;51.362;10.082;2022-11-18T10:23:07;18.90;;;8.37;;
76443;SDS011;65282;51.362;10.082;2022-11-18T10:25:58;18.20;;;7.83;;
76443;SDS011;65282;51.362;10.082;2022-11-18T10:28:42;15.93;;;7.90;;
76443;SDS011;65282;51.362;10.082;2022-11-18T10:31:26;14.80;;;7.30;;
76443;SDS011;65282;51.362;10.082;2022-11-18T10:34:11;13.57;;;6.67;;
76443;SDS011;65282;51.362;10.082;2022-11-18T10:37:03;16.47;;;7.63;;
76443;SDS011;65282;51.362;10.082;2022-11-18T10:39:49;13.87;;;7.37;;
76443;SDS011;65282;51.362;10.082;2022-11-18T10:42:36;12.40;;;6.10;;
76443;SDS011;65282;51.362;10.082;2022-11-18T10:45:25;12.63;;;5.77;;
76443;SDS011;65282;51.362;10.082;2022-11-18T10:48:16;11.83;;;6.00;;
76443;SDS011;65282;51.362;10.082;2022-11-18T10:51:02;10.70;;;5.67;;
76443;SDS011;65282;51.362;10.082;2022-11-18T10:54:07;14.53;;;6.30;;
76443;SDS011;65282;51.362;10.082;2022-11-18T10:56:56;11.10;;;5.50;;
76443;SDS011;65282;51.362;10.082;2022-11-18T10:59:46;10.83;;;5.90;;
76443;SDS011;65282;51.362;10.082;2022-11-18T11:02:33;8.87;;;4.53;;
76443;SDS011;65282;51.362;10.082;2022-11-18T11:05:21;9.50;;;4.80;;
76443;SDS011;65282;51.362;10.082;2022-11-18T11:08:17;11.17;;;4.80;;
76443;SDS011;65282;51.362;10.082;2022-11-18T11:11:05;11.87;;;4.87;;
76443;SDS011;65282;51.362;10.082;2022-11-18T11:14:04;9.33;;;4.83;;
76443;SDS011;65282;51.362;10.082;2022-11-18T11:17:05;8.93;;;4.40;;
76443;SDS011;65282;51.362;10.082;2022-11-18T11:19:55;11.27;;;4.77;;
76443;SDS011;65282;51.362;10.082;2022-11-18T11:22:46;10.80;;;4.50;;
76443;SDS011;65282;51.362;10.082;2022-11-18T11:25:32;7.43;;;3.67;;
76443;SDS011;65282;51.362;10.082;2022-11-18T11:28:27;6.80;;;3.70;;
76443;SDS011;65282;51.362;10.082;2022-11-18T11:31:19;6.03;;;3.30;;
76443;SDS011;65282;51.362;10.082;2022-11-18T11:34:10;8.60;;;4.00;;
76443;SDS011;65282;51.362;10.082;2022-11-18T11:37:03;6.20;;;3.57;;
76443;SDS011;65282;51.362;10.082;2022-11-18T11:40:02;8.97;;;3.83;;
76443;SDS011;65282;51.362;10.082;2022-11-18T11:43:03;7.97;;;3.50;;
76443;SDS011;65282;51.362;10.082;2022-11-18T11:46:06;7.03;;;3.70;;
76443;SDS011;65282;51.362;10.082;2022-11-18T11:49:04;9.70;;;4.53;;
76443;SDS011;65282;51.362;10.082;2022-11-18T11:52:01;11.17;;;5.10;;
76443;SDS011;65282;51.362;10.082;2022-11-18T11:54:55;8.17;;;4.40;;
76443;SDS011;65282;51.362;10.082;2022-11-18T11:57:50;7.67;;;3.37;;
76443;SDS011;65282;51.362;10.082;2022-11-18T12:00:48;23.33;;;11.70;;
76443;SDS011;65282;51.362;10.082;2022-11-18T12:03:43;7.03;;;3.90;;
76443;SDS011;65282;51.362;10.082;2022-11-18T12:06:30;7.13;;;3.23;;
76443;SDS011;65282;51.362;10.082;2022-11-18T12:09:17;5.50;;;3.20;;
76443;SDS011;65282;51.362;10.082;2022-11-18T12:12:05;5.57;;;2.87;;
76443;SDS011;65282;51.362;10.082;2022-11-18T12:14:55;4.03;;;2.37;;
76443;SDS011;65282;51.362;10.082;2022-11-18T12:17:45;4.40;;;2.80;;
76443;SDS011;65282;51.362;10.082;2022-11-18T12:20:37;4.83;;;2.13;;
76443;SDS011;65282;51.362;10.082;2022-11-18T12:23:25;4.33;;;2.77;;
76443;SDS011;65282;51.362;10.082;2022-11-18T12:26:10;5.23;;;2.87;;
76443;SDS011;65282;51.362;10.082;2022-11-18T12:29:19;4.80;;;2.67;;
76443;SDS011;65282;51.362;10.082;2022-11-18T12:35:21;6.53;;;3.50;;
76443;SDS011;65282;51.362;10.082;2022-11-18T12:38:11;4.83;;;3.00;;
76443;SDS011;65282;51.362;10.082;2022-11-18T12:44:29;5.23;;;3.17;;
76443;SDS011;65282;51.362;10.082;2022-11-18T12:47:13;7.83;;;3.67;;
76443;SDS011;65282;51.362;10.082;2022-11-18T12:50:09;6.03;;;3.40;;
76443;SDS011;65282;51.362;10.082;2022-11-18T12:52:55;6.43;;;3.80;;
76443;SDS011;65282;51.362;10.082;2022-11-18T12:55:40;7.50;;;3.30;;
76443;SDS011;65282;51.362;10.082;2022-11-18T12:58:25;5.80;;;3.33;;
76443;SDS011;65282;51.362;10.082;2022-11-18T13:01:10;6.20;;;3.30;;
76443;SDS011;65282;51.362;10.082;2022-11-18T13:04:04;9.10;;;4.90;;
76443;SDS011;65282;51.362;10.082;2022-11-18T13:06:50;8.50;;;4.20;;
76443;SDS011;65282;51.362;10.082;2022-11-18T13:09:34;7.37;;;4.30;;
76443;SDS011;65282;51.362;10.082;2022-11-18T13:12:20;6.87;;;3.93;;
76443;SDS011;65282;51.362;10.082;2022-11-18T13:15:08;7.00;;;3.70;;
76443;SDS011;65282;51.362;10.082;2022-11-18T13:18:03;8.10;;;4.13;;
76443;SDS011;65282;51.362;10.082;2022-11-18T13:20:53;10.60;;;4.07;;
76443;SDS011;65282;51.362;10.082;2022-11-18T13:23:38;8.07;;;4.83;;
76443;SDS011;65282;51.362;10.082;2022-11-18T13:26:23;7.10;;;3.80;;
76443;SDS011;65282;51.362;10.082;2022-11-18T13:29:16;7.33;;;4.60;;
76443;SDS011;65282;51.362;10.082;2022-11-18T13:32:13;7.53;;;4.43;;
76443;SDS011;65282;51.362;10.082;2022-11-18T13:35:06;9.07;;;4.60;;
76443;SDS011;65282;51.362;10.082;2022-11-18T13:37:56;10.00;;;4.40;;
76443;SDS011;65282;51.362;10.082;2022-11-18T13:40:43;7.03;;;4.03;;
76443;SDS011;65282;51.362;10.082;2022-11-18T13:43:28;9.43;;;4.60;;
76443;SDS011;65282;51.362;10.082;2022-11-18T13:46:15;10.30;;;5.33;;
76443;SDS011;65282;51.362;10.082;2022-11-18T13:49:03;10.53;;;4.37;;
76443;SDS011;65282;51.362;10.082;2022-11-18T13:51:48;10.10;;;5.20;;
76443;SDS011;65282;51.362;10.082;2022-11-18T13:54:32;7.77;;;4.00;;
76443;SDS011;65282;51.362;10.082;2022-11-18T13:57:17;8.20;;;4.40;;
76443;SDS011;65282;51.362;10.082;2022-11-18T14:00:06;7.83;;;4.30;;
76443;SDS011;65282;51.362;10.082;2022-11-18T14:03:04;6.50;;;3.33;;
76443;SDS011;65282;51.362;10.082;2022-11-18T14:06:06;7.43;;;4.13;;
76443;SDS011;65282;51.362;10.082;2022-11-18T14:08:50;9.73;;;4.63;;
76443;SDS011;65282;51.362;10.082;2022-11-18T14:11:56;8.13;;;3.90;;
76443;SDS011;65282;51.362;10.082;2022-11-18T14:14:42;9.93;;;4.57;;
76443;SDS011;65282;51.362;10.082;2022-11-18T14:17:27;8.43;;;4.43;;
76443;SDS011;65282;51.362;10.082;2022-11-18T14:20:14;7.43;;;3.70;;
76443;SDS011;65282;51.362;10.082;2022-11-18T14:23:00;7.27;;;3.63;;
76443;SDS011;65282;51.362;10.082;2022-11-18T14:25:46;8.43;;;3.73;;
76443;SDS011;65282;51.362;10.082;2022-11-18T14:28:31;7.63;;;3.87;;
76443;SDS011;65282;51.362;10.082;2022-11-18T14:31:20;8.17;;;3.90;;
76443;SDS011;65282;51.362;10.082;2022-11-18T14:34:15;7.43;;;3.70;;
76443;SDS011;65282;51.362;10.082;2022-11-18T14:37:05;9.77;;;4.20;;
76443;SDS011;65282;51.362;10.082;2022-11-18T14:39:54;7.70;;;3.40;;
76443;SDS011;65282;51.362;10.082;2022-11-18T14:42:39;10.00;;;3.67;;
76443;SDS011;65282;51.362;10.082;2022-11-18T14:45:23;8.03;;;3.87;;
76443;SDS011;65282;51.362;10.082;2022-11-18T14:48:08;9.23;;;3.93;;
76443;SDS011;65282;51.362;10.082;2022-11-18T14:50:55;5.60;;;3.60;;
76443;SDS011;65282;51.362;10.082;2022-11-18T14:53:41;6.43;;;3.10;;
76443;SDS011;65282;51.362;10.082;2022-11-18T14:56:26;8.27;;;4.80;;
76443;SDS011;65282;51.362;10.082;2022-11-18T14:59:13;6.67;;;3.03;;
76443;SDS011;65282;51.362;10.082;2022-11-18T15:01:58;8.80;;;4.27;;
76443;SDS011;65282;51.362;10.082;2022-11-18T15:04:42;7.50;;;3.70;;
76443;SDS011;65282;51.362;10.082;2022-11-18T15:07:27;5.70;;;2.80;;
76443;SDS011;65282;51.362;10.082;2022-11-18T15:10:14;5.90;;;3.30;;
76443;SDS011;65282;51.362;10.082;2022-11-18T15:13:00;5.47;;;3.30;;
76443;SDS011;65282;51.362;10.082;2022-11-18T15:15:44;7.77;;;3.80;;
76443;SDS011;65282;51.362;10.082;2022-11-18T15:18:28;4.83;;;2.53;;
76443;SDS011;65282;51.362;10.082;2022-11-18T15:21:12;4.97;;;3.03;;
76443;SDS011;65282;51.362;10.082;2022-11-18T15:23:57;4.83;;;2.63;;
76443;SDS011;65282;51.362;10.082;2022-11-18T15:26:43;3.23;;;2.43;;
76443;SDS011;65282;51.362;10.082;2022-11-18T15:29:28;4.70;;;2.30;;
76443;SDS011;65282;51.362;10.082;2022-11-18T15:32:12;4.20;;;2.70;;
76443;SDS011;65282;51.362;10.082;2022-11-18T15:34:56;3.30;;;2.00;;
76443;SDS011;65282;51.362;10.082;2022-11-18T15:37:40;4.33;;;2.03;;
76443;SDS011;65282;51.362;10.082;2022-11-18T15:40:24;3.67;;;2.20;;
76443;SDS011;65282;51.362;10.082;2022-11-18T15:43:10;3.97;;;2.53;;
76443;SDS011;65282;51.362;10.082;2022-11-18T15:45:55;5.13;;;2.40;;
76443;SDS011;65282;51.362;10.082;2022-11-18T15:48:40;5.00;;;2.40;;
76443;SDS011;65282;51.362;10.082;2022-11-18T15:51:25;4.90;;;2.30;;
76443;SDS011;65282;51.362;10.082;2022-11-18T15:54:10;6.40;;;3.23;;
76443;SDS011;65282;51.362;10.082;2022-11-18T15:56:54;4.17;;;2.20;;
76443;SDS011;65282;51.362;10.082;2022-11-18T15:59:40;5.33;;;2.50;;
76443;SDS011;65282;51.362;10.082;2022-11-18T16:02:24;5.43;;;2.63;;
76443;SDS011;65282;51.362;10.082;2022-11-18T16:05:08;4.57;;;2.27;;
76443;SDS011;65282;51.362;10.082;2022-11-18T16:07:53;3.27;;;2.27;;
76443;SDS011;65282;51.362;10.082;2022-11-18T16:10:37;7.43;;;2.40;;
76443;SDS011;65282;51.362;10.082;2022-11-18T16:13:21;4.90;;;2.57;;
76443;SDS011;65282;51.362;10.082;2022-11-18T16:16:06;8.97;;;4.07;;
76443;SDS011;65282;51.362;10.082;2022-11-18T16:18:52;4.77;;;3.23;;
76443;SDS011;65282;51.362;10.082;2022-11-18T16:21:37;5.10;;;3.30;;
76443;SDS011;65282;51.362;10.082;2022-11-18T16:24:24;4.33;;;2.73;;
76443;SDS011;65282;51.362;10.082;2022-11-18T16:27:10;6.17;;;3.13;;
76443;SDS011;65282;51.362;10.082;2022-11-18T16:29:54;8.27;;;3.20;;
76443;SDS011;65282;51.362;10.082;2022-11-18T16:32:39;7.80;;;3.27;;
76443;SDS011;65282;51.362;10.082;2022-11-18T16:35:23;10.97;;;5.20;;
76443;SDS011;65282;51.362;10.082;2022-11-18T16:38:08;9.03;;;4.43;;
76443;SDS011;65282;51.362;10.082;2022-11-18T16:40:55;9.13;;;5.00;;
76443;SDS011;65282;51.362;10.082;2022-11-18T16:43:40;6.07;;;3.23;;
76443;SDS011;65282;51.362;10.082;2022-11-18T16:46:24;9.00;;;4.20;;
76443;SDS011;65282;51.362;10.082;2022-11-18T16:49:11;7.60;;;3.97;;
76443;SDS011;65282;51.362;10.082;2022-11-18T16:51:56;8.63;;;3.87;;
76443;SDS011;65282;51.362;10.082;2022-11-18T16:54:40;7.27;;;3.47;;
76443;SDS011;65282;51.362;10.082;2022-11-18T16:57:24;6.57;;;3.50;;
76443;SDS011;65282;51.362;10.082;2022-11-18T17:00:09;7.47;;;3.50;;
76443;SDS011;65282;51.362;10.082;2022-11-18T17:02:54;10.40;;;4.73;;
76443;SDS011;65282;51.362;10.082;2022-11-18T17:05:39;10.53;;;4.87;;
76443;SDS011;65282;51.362;10.082;2022-11-18T17:08:23;7.37;;;4.07;;
76443;SDS011;65282;51.362;10.082;2022-11-18T17:11:08;10.03;;;5.00;;
76443;SDS011;65282;51.362;10.082;2022-11-18T17:13:53;10.27;;;5.33;;
76443;SDS011;65282;51.362;10.082;2022-11-18T17:16:38;8.43;;;4.13;;
76443;SDS011;65282;51.362;10.082;2022-11-18T17:19:22;7.17;;;4.13;;
76443;SDS011;65282;51.362;10.082;2022-11-18T17:22:08;9.10;;;5.00;;
76443;SDS011;65282;51.362;10.082;2022-11-18T17:24:52;8.67;;;4.33;;
76443;SDS011;65282;51.362;10.082;2022-11-18T17:27:36;11.27;;;5.33;;
76443;SDS011;65282;51.362;10.082;2022-11-18T17:30:20;11.67;;;6.37;;
76443;SDS011;65282;51.362;10.082;2022-11-18T17:33:04;10.83;;;5.90;;
76443;SDS011;65282;51.362;10.082;2022-11-18T17:35:56;13.50;;;6.50;;
76443;SDS011;65282;51.362;10.082;2022-11-18T17:38:43;15.00;;;7.27;;
76443;SDS011;65282;51.362;10.082;2022-11-18T17:41:29;13.03;;;6.23;;
76443;SDS011;65282;51.362;10.082;2022-11-18T17:44:14;14.23;;;7.80;;
76443;SDS011;65282;51.362;10.082;2022-11-18T17:46:59;16.03;;;8.77;;
76443;SDS011;65282;51.362;10.082;2022-11-18T17:49:43;16.53;;;8.73;;
76443;SDS011;65282;51.362;10.082;2022-11-18T17:52:28;20.23;;;8.53;;
76443;SDS011;65282;51.362;10.082;2022-11-18T17:55:13;17.27;;;8.90;;
76443;SDS011;65282;51.362;10.082;2022-11-18T17:57:57;19.97;;;9.53;;
76443;SDS011;65282;51.362;10.082;2022-11-18T18:00:42;20.23;;;9.60;;
76443;SDS011;65282;51.362;10.082;2022-11-18T18:03:27;19.40;;;9.77;;
76443;SDS011;65282;51.362;10.082;2022-11-18T18:06:12;24.07;;;9.83;;
76443;SDS011;65282;51.362;10.082;2022-11-18T18:08:57;21.83;;;9.97;;
76443;SDS011;65282;51.362;10.082;2022-11-18T18:11:42;19.37;;;9.83;;
76443;SDS011;65282;51.362;10.082;2022-11-18T18:14:26;22.07;;;10.83;;
76443;SDS011;65282;51.362;10.082;2022-11-18T18:17:11;19.37;;;10.07;;
76443;SDS011;65282;51.362;10.082;2022-11-18T18:19:55;19.23;;;9.97;;
76443;SDS011;65282;51.362;10.082;2022-11-18T18:22:39;22.63;;;11.20;;
76443;SDS011;65282;51.362;10.082;2022-11-18T18:25:23;40.07;;;18.33;;
76443;SDS011;65282;51.362;10.082;2022-11-18T18:28:09;33.70;;;15.30;;
76443;SDS011;65282;51.362;10.082;2022-11-18T18:30:56;22.70;;;11.00;;
76443;SDS011;65282;51.362;10.082;2022-11-18T18:33:41;23.97;;;11.60;;
76443;SDS011;65282;51.362;10.082;2022-11-18T18:36:25;23.97;;;11.53;;
76443;SDS011;65282;51.362;10.082;2022-11-18T18:39:10;29.57;;;15.53;;
76443;SDS011;65282;51.362;10.082;2022-11-18T18:41:54;27.17;;;14.10;;
76443;SDS011;65282;51.362;10.082;2022-11-18T18:44:39;25.33;;;12.33;;
76443;SDS011;65282;51.362;10.082;2022-11-18T18:47:24;24.63;;;12.03;;
76443;SDS011;65282;51.362;10.082;2022-11-18T18:50:08;27.07;;;13.17;;
76443;SDS011;65282;51.362;10.082;2022-11-18T18:52:52;22.80;;;11.07;;
76443;SDS011;65282;51.362;10.082;2022-11-18T18:55:36;21.13;;;10.50;;
76443;SDS011;65282;51.362;10.082;2022-11-18T18:58:20;21.53;;;11.13;;
76443;SDS011;65282;51.362;10.082;2022-11-18T19:01:07;24.80;;;11.53;;
76443;SDS011;65282;51.362;10.082;2022-11-18T19:03:54;23.13;;;10.97;;
76443;SDS011;65282;51.362;10.082;2022-11-18T19:06:40;28.97;;;11.73;;
76443;SDS011;65282;51.362;10.082;2022-11-18T19:09:28;24.77;;;10.97;;
76443;SDS011;65282;51.362;10.082;2022-11-18T19:12:12;22.93;;;11.37;;
76443;SDS011;65282;51.362;10.082;2022-11-18T19:14:57;22.77;;;11.30;;
76443;SDS011;65282;51.362;10.082;2022-11-18T19:17:42;23.03;;;10.73;;
76443;SDS011;65282;51.362;10.082;2022-11-18T19:20:27;23.47;;;12.03;;
76443;SDS011;65282;51.362;10.082;2022-11-18T19:23:11;23.00;;;11.20;;
76443;SDS011;65282;51.362;10.082;2022-11-18T19:25:59;20.80;;;10.30;;
76443;SDS011;65282;51.362;10.082;2022-11-18T19:28:43;24.23;;;11.03;;
76443;SDS011;65282;51.362;10.082;2022-11-18T19:31:28;23.73;;;11.83;;
76443;SDS011;65282;51.362;10.082;2022-11-18T19:34:14;24.20;;;12.67;;
76443;SDS011;65282;51.362;10.082;2022-11-18T19:36:59;24.67;;;11.87;;
76443;SDS011;65282;51.362;10.082;2022-11-18T19:39:43;37.67;;;16.97;;
76443;SDS011;65282;51.362;10.082;2022-11-18T19:42:27;40.13;;;17.73;;
76443;SDS011;65282;51.362;10.082;2022-11-18T19:45:12;27.80;;;14.87;;
76443;SDS011;65282;51.362;10.082;2022-11-18T19:47:57;26.60;;;13.70;;
76443;SDS011;65282;51.362;10.082;2022-11-18T19:50:43;29.33;;;15.03;;
76443;SDS011;65282;51.362;10.082;2022-11-18T19:53:27;25.17;;;12.37;;
76443;SDS011;65282;51.362;10.082;2022-11-18T19:56:12;30.70;;;14.77;;
76443;SDS011;65282;51.362;10.082;2022-11-18T19:58:56;26.70;;;13.73;;
76443;SDS011;65282;51.362;10.082;2022-11-18T20:01:41;25.63;;;12.43;;
76443;SDS011;65282;51.362;10.082;2022-11-18T20:04:25;31.47;;;14.67;;
76443;SDS011;65282;51.362;10.082;2022-11-18T20:07:11;31.30;;;13.60;;
76443;SDS011;65282;51.362;10.082;2022-11-18T20:09:55;27.20;;;13.40;;
76443;SDS011;65282;51.362;10.082;2022-11-18T20:12:39;26.97;;;13.40;;
76443;SDS011;65282;51.362;10.082;2022-11-18T20:15:24;28.33;;;14.30;;
76443;SDS011;65282;51.362;10.082;2022-11-18T20:18:08;30.63;;;14.80;;
76443;SDS011;65282;51.362;10.082;2022-11-18T20:20:53;26.90;;;13.63;;
76443;SDS011;65282;51.362;10.082;2022-11-18T20:23:39;28.50;;;14.87;;
76443;SDS011;65282;51.362;10.082;2022-11-18T20:26:24;33.70;;;14.63;;
76443;SDS011;65282;51.362;10.082;2022-11-18T20:29:09;28.37;;;13.93;;
76443;SDS011;65282;51.362;10.082;2022-11-18T20:31:54;31.87;;;15.43;;
76443;SDS011;65282;51.362;10.082;2022-11-18T20:34:38;34.67;;;16.37;;
76443;SDS011;65282;51.362;10.082;2022-11-18T20:37:22;27.17;;;13.83;;
76443;SDS011;65282;51.362;10.082;2022-11-18T20:40:09;30.47;;;15.20;;
76443;SDS011;65282;51.362;10.082;2022-11-18T20:42:54;29.20;;;14.97;;
76443;SDS011;65282;51.362;10.082;2022-11-18T20:45:38;33.00;;;16.23;;
76443;SDS011;65282;51.362;10.082;2022-11-18T20:48:23;27.53;;;13.90;;
76443;SDS011;65282;51.362;10.082;2022-11-18T20:51:10;25.27;;;12.97;;
76443;SDS011;65282;51.362;10.082;2022-11-18T20:53:56;29.83;;;14.87;;
76443;SDS011;65282;51.362;10.082;2022-11-18T20:56:42;33.97;;;15.43;;
76443;SDS011;65282;51.362;10.082;2022-11-18T20:59:26;29.63;;;14.93;;
76443;SDS011;65282;51.362;10.082;2022-11-18T21:02:11;31.60;;;14.07;;
76443;SDS011;65282;51.362;10.082;2022-11-18T21:04:55;33.87;;;14.83;;
76443;SDS011;65282;51.362;10.082;2022-11-18T21:07:39;29.47;;;14.03;;
76443;SDS011;65282;51.362;10.082;2022-11-18T21:10:23;29.93;;;15.13;;
76443;SDS011;65282;51.362;10.082;2022-11-18T21:13:09;33.67;;;15.83;;
76443;SDS011;65282;51.362;10.082;2022-11-18T21:15:53;34.57;;;14.40;;
76443;SDS011;65282;51.362;10.082;2022-11-18T21:18:37;28.13;;;13.77;;
76443;SDS011;65282;51.362;10.082;2022-11-18T21:21:21;35.57;;;16.73;;
76443;SDS011;65282;51.362;10.082;2022-11-18T21:24:06;33.80;;;15.53;;
76443;SDS011;65282;51.362;10.082;2022-11-18T21:26:51;36.43;;;17.00;;
76443;SDS011;65282;51.362;10.082;2022-11-18T21:29:37;33.87;;;16.97;;
76443;SDS011;65282;51.362;10.082;2022-11-18T21:32:22;35.00;;;16.73;;
76443;SDS011;65282;51.362;10.082;2022-11-18T21:35:06;37.53;;;17.67;;
76443;SDS011;65282;51.362;10.082;2022-11-18T21:37:51;37.63;;;18.17;;
76443;SDS011;65282;51.362;10.082;2022-11-18T21:40:35;43.43;;;21.07;;
76443;SDS011;65282;51.362;10.082;2022-11-18T21:43:20;47.27;;;21.27;;
76443;SDS011;65282;51.362;10.082;2022-11-18T21:46:06;41.03;;;17.77;;
76443;SDS011;65282;51.362;10.082;2022-11-18T21:48:51;42.33;;;19.70;;
76443;SDS011;65282;51.362;10.082;2022-11-18T21:51:36;46.27;;;21.33;;
76443;SDS011;65282;51.362;10.082;2022-11-18T21:54:20;45.33;;;20.33;;
76443;SDS011;65282;51.362;10.082;2022-11-18T21:57:05;41.93;;;18.83;;
76443;SDS011;65282;51.362;10.082;2022-11-18T21:59:49;38.63;;;17.00;;
76443;SDS011;65282;51.362;10.082;2022-11-18T22:02:34;34.80;;;16.73;;
76443;SDS011;65282;51.362;10.082;2022-11-18T22:05:19;44.73;;;19.77;;
76443;SDS011;65282;51.362;10.082;2022-11-18T22:08:03;43.97;;;18.97;;